sensor_id;sensor_type;location;lat;lon;timestamp;temperature;humidity
80230;DHT22;69540;42.136;24.742;2023-04-29T00:01:18;23.80;29.30
80230;DHT22;69540;42.136;24.742;2023-04-29T00:03:44;23.70;29.30
80230;DHT22;69540;42.136;24.742;2023-04-29T00:06:09;23.70;29.30
80230;DHT22;69540;42.136;24.742;2023-04-29T00:08:36;23.70;29.30
80230;DHT22;69540;42.136;24.742;2023-04-29T00:11:02;23.70;29.30
80230;DHT22;69540;42.136;24.742;2023-04-29T00:13:27;23.70;29.20
80230;DHT22;69540;42.136;24.742;2023-04-29T00:15:53;23.70;29.30
80230;DHT22;69540;42.136;24.742;2023-04-29T00:18:19;23.70;29.30
80230;DHT22;69540;42.136;24.742;2023-04-29T00:20:44;23.70;29.30
80230;DHT22;69540;42.136;24.742;2023-04-29T00:23:10;23.70;30.00
80230;DHT22;69540;42.136;24.742;2023-04-29T00:25:36;23.70;29.30
80230;DHT22;69540;42.136;24.742;2023-04-29T00:28:04;23.70;29.20
80230;DHT22;69540;42.136;24.742;2023-04-29T00:30:30;23.70;29.20
80230;DHT22;69540;42.136;24.742;2023-04-29T00:32:57;23.70;29.20
80230;DHT22;69540;42.136;24.742;2023-04-29T00:35:23;23.70;29.30
80230;DHT22;69540;42.136;24.742;2023-04-29T00:37:49;23.70;29.30
80230;DHT22;69540;42.136;24.742;2023-04-29T00:40:14;23.70;29.30
80230;DHT22;69540;42.136;24.742;2023-04-29T00:42:41;23.70;29.20
80230;DHT22;69540;42.136;24.742;2023-04-29T00:45:10;23.70;29.20
80230;DHT22;69540;42.136;24.742;2023-04-29T00:47:36;23.70;29.20
80230;DHT22;69540;42.136;24.742;2023-04-29T00:50:04;23.70;29.20
80230;DHT22;69540;42.136;24.742;2023-04-29T00:52:30;23.70;30.00
80230;DHT22;69540;42.136;24.742;2023-04-29T00:54:58;23.70;29.30
80230;DHT22;69540;42.136;24.742;2023-04-29T00:57:25;23.70;29.20
80230;DHT22;69540;42.136;24.742;2023-04-29T00:59:57;23.70;29.20
80230;DHT22;69540;42.136;24.742;2023-04-29T01:02:24;23.70;29.20
80230;DHT22;69540;42.136;24.742;2023-04-29T01:04:50;23.70;29.20
80230;DHT22;69540;42.136;24.742;2023-04-29T01:07:21;23.70;29.20
80230;DHT22;69540;42.136;24.742;2023-04-29T01:10:06;23.70;29.20
80230;DHT22;69540;42.136;24.742;2023-04-29T01:12:42;23.70;29.20
80230;DHT22;69540;42.136;24.742;2023-04-29T01:18:18;23.70;29.20
80230;DHT22;69540;42.136;24.742;2023-04-29T01:20:45;23.70;29.20
80230;DHT22;69540;42.136;24.742;2023-04-29T01:23:11;23.70;29.20
80230;DHT22;69540;42.136;24.742;2023-04-29T01:25:36;23.60;29.10
80230;DHT22;69540;42.136;24.742;2023-04-29T01:31:18;23.70;29.20
80230;DHT22;69540;42.136;24.742;2023-04-29T01:33:50;23.70;29.20
80230;DHT22;69540;42.136;24.742;2023-04-29T01:39:01;23.60;29.20
80230;DHT22;69540;42.136;24.742;2023-04-29T01:41:34;23.60;29.20
80230;DHT22;69540;42.136;24.742;2023-04-29T01:44:03;23.60;29.20
80230;DHT22;69540;42.136;24.742;2023-04-29T01:46:30;23.60;29.20
80230;DHT22;69540;42.136;24.742;2023-04-29T01:48:56;23.60;29.10
80230;DHT22;69540;42.136;24.742;2023-04-29T01:51:22;23.60;29.10
80230;DHT22;69540;42.136;24.742;2023-04-29T01:53:48;23.60;29.10
80230;DHT22;69540;42.136;24.742;2023-04-29T01:56:13;23.60;29.10
80230;DHT22;69540;42.136;24.742;2023-04-29T01:58:39;23.60;29.10
80230;DHT22;69540;42.136;24.742;2023-04-29T02:01:05;23.60;29.10
80230;DHT22;69540;42.136;24.742;2023-04-29T02:03:31;23.60;29.10
80230;DHT22;69540;42.136;24.742;2023-04-29T02:05:57;23.60;29.10
80230;DHT22;69540;42.136;24.742;2023-04-29T02:08:23;23.60;29.10
80230;DHT22;69540;42.136;24.742;2023-04-29T02:10:53;23.60;29.10
80230;DHT22;69540;42.136;24.742;2023-04-29T02:13:19;23.60;29.10
80230;DHT22;69540;42.136;24.742;2023-04-29T02:15:44;23.60;29.10
80230;DHT22;69540;42.136;24.742;2023-04-29T02:18:10;23.60;29.00
80230;DHT22;69540;42.136;24.742;2023-04-29T02:20:36;23.70;29.10
80230;DHT22;69540;42.136;24.742;2023-04-29T02:23:01;23.60;29.10
80230;DHT22;69540;42.136;24.742;2023-04-29T02:25:27;23.60;29.10
80230;DHT22;69540;42.136;24.742;2023-04-29T02:27:53;23.60;29.10
80230;DHT22;69540;42.136;24.742;2023-04-29T02:30:18;23.60;29.00
80230;DHT22;69540;42.136;24.742;2023-04-29T02:32:44;23.60;29.00
80230;DHT22;69540;42.136;24.742;2023-04-29T02:35:09;23.60;29.00
80230;DHT22;69540;42.136;24.742;2023-04-29T02:37:35;23.60;29.00
80230;DHT22;69540;42.136;24.742;2023-04-29T02:40:01;23.60;29.00
80230;DHT22;69540;42.136;24.742;2023-04-29T02:42:27;23.60;29.00
80230;DHT22;69540;42.136;24.742;2023-04-29T02:44:53;23.60;29.00
80230;DHT22;69540;42.136;24.742;2023-04-29T02:54:07;23.60;29.00
80230;DHT22;69540;42.136;24.742;2023-04-29T02:56:32;23.60;29.10
80230;DHT22;69540;42.136;24.742;2023-04-29T02:58:59;23.50;29.00
80230;DHT22;69540;42.136;24.742;2023-04-29T03:01:24;23.50;29.80
80230;DHT22;69540;42.136;24.742;2023-04-29T03:03:50;23.60;29.00
80230;DHT22;69540;42.136;24.742;2023-04-29T03:06:16;23.60;29.00
80230;DHT22;69540;42.136;24.742;2023-04-29T03:08:41;23.60;29.00
80230;DHT22;69540;42.136;24.742;2023-04-29T03:11:07;23.50;28.90
80230;DHT22;69540;42.136;24.742;2023-04-29T03:13:33;23.60;29.00
80230;DHT22;69540;42.136;24.742;2023-04-29T03:15:58;23.50;28.90
80230;DHT22;69540;42.136;24.742;2023-04-29T03:18:25;23.60;28.90
80230;DHT22;69540;42.136;24.742;2023-04-29T03:20:50;23.60;29.00
80230;DHT22;69540;42.136;24.742;2023-04-29T03:23:17;23.60;28.90
80230;DHT22;69540;42.136;24.742;2023-04-29T03:25:43;23.60;28.90
80230;DHT22;69540;42.136;24.742;2023-04-29T03:28:08;23.60;28.90
80230;DHT22;69540;42.136;24.742;2023-04-29T03:30:34;23.60;28.90
80230;DHT22;69540;42.136;24.742;2023-04-29T03:33:01;23.60;28.90
80230;DHT22;69540;42.136;24.742;2023-04-29T03:35:26;23.50;28.90
80230;DHT22;69540;42.136;24.742;2023-04-29T03:37:52;23.60;28.90
80230;DHT22;69540;42.136;24.742;2023-04-29T03:40:18;23.60;28.90
80230;DHT22;69540;42.136;24.742;2023-04-29T03:42:43;23.60;29.00
80230;DHT22;69540;42.136;24.742;2023-04-29T03:45:09;23.50;28.90
80230;DHT22;69540;42.136;24.742;2023-04-29T03:47:38;23.60;28.90
80230;DHT22;69540;42.136;24.742;2023-04-29T03:50:05;23.60;28.90
80230;DHT22;69540;42.136;24.742;2023-04-29T03:52:31;23.60;28.90
80230;DHT22;69540;42.136;24.742;2023-04-29T03:54:57;23.60;28.90
80230;DHT22;69540;42.136;24.742;2023-04-29T03:57:22;23.50;28.90
80230;DHT22;69540;42.136;24.742;2023-04-29T03:59:48;23.60;28.90
80230;DHT22;69540;42.136;24.742;2023-04-29T04:02:15;23.50;28.90
80230;DHT22;69540;42.136;24.742;2023-04-29T04:04:41;23.50;28.90
80230;DHT22;69540;42.136;24.742;2023-04-29T04:07:06;23.50;28.90
80230;DHT22;69540;42.136;24.742;2023-04-29T04:09:32;23.50;28.90
80230;DHT22;69540;42.136;24.742;2023-04-29T04:11:58;23.50;28.80
80230;DHT22;69540;42.136;24.742;2023-04-29T04:14:24;23.50;28.90
80230;DHT22;69540;42.136;24.742;2023-04-29T04:16:50;23.60;28.90
80230;DHT22;69540;42.136;24.742;2023-04-29T04:19:16;23.50;28.80
80230;DHT22;69540;42.136;24.742;2023-04-29T04:21:41;23.50;28.80
80230;DHT22;69540;42.136;24.742;2023-04-29T04:24:07;23.50;28.80
80230;DHT22;69540;42.136;24.742;2023-04-29T04:26:33;23.50;28.80
80230;DHT22;69540;42.136;24.742;2023-04-29T04:28:59;23.50;28.80
80230;DHT22;69540;42.136;24.742;2023-04-29T04:31:24;23.50;28.70
80230;DHT22;69540;42.136;24.742;2023-04-29T04:33:50;23.50;28.70
80230;DHT22;69540;42.136;24.742;2023-04-29T04:36:16;23.50;28.80
80230;DHT22;69540;42.136;24.742;2023-04-29T04:38:41;23.50;28.80
80230;DHT22;69540;42.136;24.742;2023-04-29T04:41:07;23.50;28.80
80230;DHT22;69540;42.136;24.742;2023-04-29T04:43:33;23.50;28.80
80230;DHT22;69540;42.136;24.742;2023-04-29T04:45:58;23.50;28.80
80230;DHT22;69540;42.136;24.742;2023-04-29T04:48:24;23.60;28.80
80230;DHT22;69540;42.136;24.742;2023-04-29T04:50:50;23.50;28.70
80230;DHT22;69540;42.136;24.742;2023-04-29T04:53:16;23.50;28.70
80230;DHT22;69540;42.136;24.742;2023-04-29T04:55:41;23.50;28.70
80230;DHT22;69540;42.136;24.742;2023-04-29T04:58:07;23.50;28.70
80230;DHT22;69540;42.136;24.742;2023-04-29T05:00:33;23.50;28.70
80230;DHT22;69540;42.136;24.742;2023-04-29T05:02:58;23.50;28.80
80230;DHT22;69540;42.136;24.742;2023-04-29T05:05:24;23.50;28.70
80230;DHT22;69540;42.136;24.742;2023-04-29T05:07:50;23.50;28.70
80230;DHT22;69540;42.136;24.742;2023-04-29T05:10:15;23.50;28.70
80230;DHT22;69540;42.136;24.742;2023-04-29T05:12:41;23.50;28.70
80230;DHT22;69540;42.136;24.742;2023-04-29T05:15:07;23.50;28.70
80230;DHT22;69540;42.136;24.742;2023-04-29T05:17:33;23.50;28.70
80230;DHT22;69540;42.136;24.742;2023-04-29T05:20:00;23.50;28.70
80230;DHT22;69540;42.136;24.742;2023-04-29T05:22:26;23.50;28.60
80230;DHT22;69540;42.136;24.742;2023-04-29T05:24:51;23.50;29.50
80230;DHT22;69540;42.136;24.742;2023-04-29T05:27:18;23.50;28.80
80230;DHT22;69540;42.136;24.742;2023-04-29T05:29:44;23.50;28.70
80230;DHT22;69540;42.136;24.742;2023-04-29T05:32:10;23.50;28.70
80230;DHT22;69540;42.136;24.742;2023-04-29T05:34:37;23.50;28.70
80230;DHT22;69540;42.136;24.742;2023-04-29T05:37:03;23.50;28.70
80230;DHT22;69540;42.136;24.742;2023-04-29T05:39:28;23.50;28.60
80230;DHT22;69540;42.136;24.742;2023-04-29T05:41:54;23.50;28.70
80230;DHT22;69540;42.136;24.742;2023-04-29T05:44:20;23.50;28.70
80230;DHT22;69540;42.136;24.742;2023-04-29T05:46:45;23.50;28.70
80230;DHT22;69540;42.136;24.742;2023-04-29T05:49:12;23.50;28.60
80230;DHT22;69540;42.136;24.742;2023-04-29T05:51:38;23.50;28.60
80230;DHT22;69540;42.136;24.742;2023-04-29T05:54:04;23.50;28.70
80230;DHT22;69540;42.136;24.742;2023-04-29T05:56:30;23.50;28.70
80230;DHT22;69540;42.136;24.742;2023-04-29T05:58:56;23.50;28.70
80230;DHT22;69540;42.136;24.742;2023-04-29T06:01:21;23.50;28.80
80230;DHT22;69540;42.136;24.742;2023-04-29T06:03:47;23.50;28.70
80230;DHT22;69540;42.136;24.742;2023-04-29T06:06:13;23.50;28.70
80230;DHT22;69540;42.136;24.742;2023-04-29T06:08:39;23.50;28.70
80230;DHT22;69540;42.136;24.742;2023-04-29T06:11:04;23.50;28.70
80230;DHT22;69540;42.136;24.742;2023-04-29T06:13:31;23.50;28.70
80230;DHT22;69540;42.136;24.742;2023-04-29T06:15:57;23.40;28.60
80230;DHT22;69540;42.136;24.742;2023-04-29T06:18:22;23.50;28.70
80230;DHT22;69540;42.136;24.742;2023-04-29T06:20:48;23.40;28.70
80230;DHT22;69540;42.136;24.742;2023-04-29T06:23:14;23.40;28.70
80230;DHT22;69540;42.136;24.742;2023-04-29T06:25:39;23.50;28.70
80230;DHT22;69540;42.136;24.742;2023-04-29T06:28:05;23.50;28.70
80230;DHT22;69540;42.136;24.742;2023-04-29T06:30:32;23.50;28.70
80230;DHT22;69540;42.136;24.742;2023-04-29T06:32:58;23.50;28.70
80230;DHT22;69540;42.136;24.742;2023-04-29T06:35:24;23.40;28.70
80230;DHT22;69540;42.136;24.742;2023-04-29T06:37:50;23.50;28.80
80230;DHT22;69540;42.136;24.742;2023-04-29T06:40:17;23.50;28.70
80230;DHT22;69540;42.136;24.742;2023-04-29T06:42:42;23.50;28.70
80230;DHT22;69540;42.136;24.742;2023-04-29T06:45:09;23.50;28.70
80230;DHT22;69540;42.136;24.742;2023-04-29T06:47:34;23.40;28.60
80230;DHT22;69540;42.136;24.742;2023-04-29T06:50:00;23.40;28.70
80230;DHT22;69540;42.136;24.742;2023-04-29T06:52:26;23.50;28.70
80230;DHT22;69540;42.136;24.742;2023-04-29T06:54:51;23.50;28.70
80230;DHT22;69540;42.136;24.742;2023-04-29T06:57:17;23.50;28.70
80230;DHT22;69540;42.136;24.742;2023-04-29T06:59:42;23.50;28.70
80230;DHT22;69540;42.136;24.742;2023-04-29T07:02:08;23.50;28.70
80230;DHT22;69540;42.136;24.742;2023-04-29T07:04:34;23.40;28.70
80230;DHT22;69540;42.136;24.742;2023-04-29T07:07:01;23.40;28.70
80230;DHT22;69540;42.136;24.742;2023-04-29T07:09:28;23.50;28.70
80230;DHT22;69540;42.136;24.742;2023-04-29T07:11:54;23.50;28.70
80230;DHT22;69540;42.136;24.742;2023-04-29T07:14:20;23.50;28.80
80230;DHT22;69540;42.136;24.742;2023-04-29T07:16:47;23.40;28.70
80230;DHT22;69540;42.136;24.742;2023-04-29T07:19:12;23.40;28.70
80230;DHT22;69540;42.136;24.742;2023-04-29T07:21:38;23.40;28.70
80230;DHT22;69540;42.136;24.742;2023-04-29T07:24:04;23.40;28.70
80230;DHT22;69540;42.136;24.742;2023-04-29T07:26:30;23.50;28.70
80230;DHT22;69540;42.136;24.742;2023-04-29T07:28:56;23.50;28.80
80230;DHT22;69540;42.136;24.742;2023-04-29T07:31:22;23.50;28.80
80230;DHT22;69540;42.136;24.742;2023-04-29T07:33:47;23.40;28.80
80230;DHT22;69540;42.136;24.742;2023-04-29T07:36:13;23.40;28.80
80230;DHT22;69540;42.136;24.742;2023-04-29T07:38:39;23.40;28.70
80230;DHT22;69540;42.136;24.742;2023-04-29T07:41:05;23.40;28.80
80230;DHT22;69540;42.136;24.742;2023-04-29T07:43:31;23.50;28.80
80230;DHT22;69540;42.136;24.742;2023-04-29T07:45:56;23.40;28.80
80230;DHT22;69540;42.136;24.742;2023-04-29T07:48:22;23.50;28.90
80230;DHT22;69540;42.136;24.742;2023-04-29T07:50:48;23.40;28.80
80230;DHT22;69540;42.136;24.742;2023-04-29T07:53:13;23.40;28.80
80230;DHT22;69540;42.136;24.742;2023-04-29T07:55:40;23.40;28.80
80230;DHT22;69540;42.136;24.742;2023-04-29T07:58:06;23.40;28.80
80230;DHT22;69540;42.136;24.742;2023-04-29T08:00:31;23.40;28.80
80230;DHT22;69540;42.136;24.742;2023-04-29T08:02:57;23.40;28.70
80230;DHT22;69540;42.136;24.742;2023-04-29T08:05:23;23.50;28.30
80230;DHT22;69540;42.136;24.742;2023-04-29T08:07:50;23.50;28.80
80230;DHT22;69540;42.136;24.742;2023-04-29T08:10:17;23.50;27.60
80230;DHT22;69540;42.136;24.742;2023-04-29T08:12:46;23.50;27.40
80230;DHT22;69540;42.136;24.742;2023-04-29T08:15:12;23.50;27.30
80230;DHT22;69540;42.136;24.742;2023-04-29T08:17:38;23.50;27.30
80230;DHT22;69540;42.136;24.742;2023-04-29T08:20:04;23.50;27.20
80230;DHT22;69540;42.136;24.742;2023-04-29T08:22:32;23.50;27.20
80230;DHT22;69540;42.136;24.742;2023-04-29T08:24:58;23.50;27.20
80230;DHT22;69540;42.136;24.742;2023-04-29T08:34:30;23.50;27.30
80230;DHT22;69540;42.136;24.742;2023-04-29T08:36:56;23.50;27.20
80230;DHT22;69540;42.136;24.742;2023-04-29T08:43:15;23.50;27.50
80230;DHT22;69540;42.136;24.742;2023-04-29T08:45:42;23.50;27.20
80230;DHT22;69540;42.136;24.742;2023-04-29T08:48:08;23.50;27.10
80230;DHT22;69540;42.136;24.742;2023-04-29T08:50:38;23.50;27.10
80230;DHT22;69540;42.136;24.742;2023-04-29T08:53:08;23.40;27.50
80230;DHT22;69540;42.136;24.742;2023-04-29T08:55:35;23.40;27.30
80230;DHT22;69540;42.136;24.742;2023-04-29T08:58:02;23.50;27.60
80230;DHT22;69540;42.136;24.742;2023-04-29T09:00:31;23.40;27.80
80230;DHT22;69540;42.136;24.742;2023-04-29T09:02:57;23.50;28.00
80230;DHT22;69540;42.136;24.742;2023-04-29T09:05:25;23.40;28.00
80230;DHT22;69540;42.136;24.742;2023-04-29T09:07:51;23.40;28.10
80230;DHT22;69540;42.136;24.742;2023-04-29T09:10:18;23.40;28.10
80230;DHT22;69540;42.136;24.742;2023-04-29T09:12:44;23.40;28.10
80230;DHT22;69540;42.136;24.742;2023-04-29T09:15:11;23.40;28.20
80230;DHT22;69540;42.136;24.742;2023-04-29T09:17:41;23.50;28.30
80230;DHT22;69540;42.136;24.742;2023-04-29T09:22:52;23.50;28.30
80230;DHT22;69540;42.136;24.742;2023-04-29T09:25:18;23.50;28.30
80230;DHT22;69540;42.136;24.742;2023-04-29T09:31:06;23.50;28.30
80230;DHT22;69540;42.136;24.742;2023-04-29T09:33:59;23.50;28.40
80230;DHT22;69540;42.136;24.742;2023-04-29T09:40:26;23.50;28.40
80230;DHT22;69540;42.136;24.742;2023-04-29T09:42:54;23.60;28.40
80230;DHT22;69540;42.136;24.742;2023-04-29T09:45:35;23.60;28.30
80230;DHT22;69540;42.136;24.742;2023-04-29T09:48:05;23.80;28.20
80230;DHT22;69540;42.136;24.742;2023-04-29T09:50:31;24.00;28.10
80230;DHT22;69540;42.136;24.742;2023-04-29T09:52:58;24.10;28.10
80230;DHT22;69540;42.136;24.742;2023-04-29T09:55:24;24.20;28.00
80230;DHT22;69540;42.136;24.742;2023-04-29T09:57:52;24.20;27.90
80230;DHT22;69540;42.136;24.742;2023-04-29T10:00:17;24.30;27.90
80230;DHT22;69540;42.136;24.742;2023-04-29T10:02:45;24.30;27.90
80230;DHT22;69540;42.136;24.742;2023-04-29T10:05:13;24.30;27.90
80230;DHT22;69540;42.136;24.742;2023-04-29T10:07:40;24.20;28.00
80230;DHT22;69540;42.136;24.742;2023-04-29T10:13:29;24.10;28.20
80230;DHT22;69540;42.136;24.742;2023-04-29T10:19:26;24.10;28.30
80230;DHT22;69540;42.136;24.742;2023-04-29T10:21:57;24.10;28.40
80230;DHT22;69540;42.136;24.742;2023-04-29T10:24:25;24.00;28.30
80230;DHT22;69540;42.136;24.742;2023-04-29T10:26:53;24.00;28.30
80230;DHT22;69540;42.136;24.742;2023-04-29T10:29:21;24.00;28.30
80230;DHT22;69540;42.136;24.742;2023-04-29T10:31:48;24.10;28.40
80230;DHT22;69540;42.136;24.742;2023-04-29T10:34:16;24.00;28.30
80230;DHT22;69540;42.136;24.742;2023-04-29T10:36:42;24.00;28.30
80230;DHT22;69540;42.136;24.742;2023-04-29T10:39:15;24.10;28.30
80230;DHT22;69540;42.136;24.742;2023-04-29T10:41:44;24.10;28.30
80230;DHT22;69540;42.136;24.742;2023-04-29T10:44:14;24.10;28.30
80230;DHT22;69540;42.136;24.742;2023-04-29T10:46:40;24.00;28.30
80230;DHT22;69540;42.136;24.742;2023-04-29T10:49:06;24.10;28.30
80230;DHT22;69540;42.136;24.742;2023-04-29T10:51:40;24.00;28.30
80230;DHT22;69540;42.136;24.742;2023-04-29T10:54:16;24.00;28.30
80230;DHT22;69540;42.136;24.742;2023-04-29T10:56:51;24.00;28.40
80230;DHT22;69540;42.136;24.742;2023-04-29T11:01:53;24.00;28.50
80230;DHT22;69540;42.136;24.742;2023-04-29T11:04:20;24.00;28.40
80230;DHT22;69540;42.136;24.742;2023-04-29T11:06:55;24.00;28.50
80230;DHT22;69540;42.136;24.742;2023-04-29T11:09:40;24.00;28.50
80230;DHT22;69540;42.136;24.742;2023-04-29T11:12:08;24.00;28.50
80230;DHT22;69540;42.136;24.742;2023-04-29T11:14:40;23.90;28.50
80230;DHT22;69540;42.136;24.742;2023-04-29T11:17:12;23.90;28.60
80230;DHT22;69540;42.136;24.742;2023-04-29T11:22:29;23.90;28.60
80230;DHT22;69540;42.136;24.742;2023-04-29T11:24:57;23.90;28.60
80230;DHT22;69540;42.136;24.742;2023-04-29T11:27:27;23.90;28.60
80230;DHT22;69540;42.136;24.742;2023-04-29T11:29:55;23.90;28.70
80230;DHT22;69540;42.136;24.742;2023-04-29T11:32:29;23.90;28.60
80230;DHT22;69540;42.136;24.742;2023-04-29T11:35:10;23.90;28.70
80230;DHT22;69540;42.136;24.742;2023-04-29T11:37:38;23.80;28.60
80230;DHT22;69540;42.136;24.742;2023-04-29T11:40:05;23.80;28.70
80230;DHT22;69540;42.136;24.742;2023-04-29T11:42:34;23.80;28.70
80230;DHT22;69540;42.136;24.742;2023-04-29T11:45:00;23.80;28.70
80230;DHT22;69540;42.136;24.742;2023-04-29T11:47:27;23.80;28.70
80230;DHT22;69540;42.136;24.742;2023-04-29T11:50:01;23.80;28.70
80230;DHT22;69540;42.136;24.742;2023-04-29T11:52:27;23.80;28.80
80230;DHT22;69540;42.136;24.742;2023-04-29T11:54:53;23.80;28.70
80230;DHT22;69540;42.136;24.742;2023-04-29T11:57:19;23.80;28.80
80230;DHT22;69540;42.136;24.742;2023-04-29T11:59:45;23.80;28.80
80230;DHT22;69540;42.136;24.742;2023-04-29T12:02:11;23.80;28.80
80230;DHT22;69540;42.136;24.742;2023-04-29T12:04:47;23.80;28.80
80230;DHT22;69540;42.136;24.742;2023-04-29T12:07:16;23.80;28.90
80230;DHT22;69540;42.136;24.742;2023-04-29T12:09:42;23.80;28.80
80230;DHT22;69540;42.136;24.742;2023-04-29T12:12:09;23.80;28.90
80230;DHT22;69540;42.136;24.742;2023-04-29T12:14:35;23.80;28.80
80230;DHT22;69540;42.136;24.742;2023-04-29T12:17:01;23.80;28.90
80230;DHT22;69540;42.136;24.742;2023-04-29T12:19:28;23.80;28.90
80230;DHT22;69540;42.136;24.742;2023-04-29T12:21:58;23.80;28.90
80230;DHT22;69540;42.136;24.742;2023-04-29T12:24:23;23.70;28.80
80230;DHT22;69540;42.136;24.742;2023-04-29T12:26:49;23.70;28.90
80230;DHT22;69540;42.136;24.742;2023-04-29T12:29:15;23.70;28.90
80230;DHT22;69540;42.136;24.742;2023-04-29T12:31:41;23.70;28.90
80230;DHT22;69540;42.136;24.742;2023-04-29T12:34:08;23.70;29.70
80230;DHT22;69540;42.136;24.742;2023-04-29T12:36:33;23.70;29.00
80230;DHT22;69540;42.136;24.742;2023-04-29T12:38:59;23.70;28.90
80230;DHT22;69540;42.136;24.742;2023-04-29T12:41:41;23.70;28.90
80230;DHT22;69540;42.136;24.742;2023-04-29T12:44:07;23.70;28.90
80230;DHT22;69540;42.136;24.742;2023-04-29T12:53:12;23.70;28.90
80230;DHT22;69540;42.136;24.742;2023-04-29T12:55:37;23.70;29.00
80230;DHT22;69540;42.136;24.742;2023-04-29T12:58:04;23.70;29.00
80230;DHT22;69540;42.136;24.742;2023-04-29T13:00:30;23.70;29.00
80230;DHT22;69540;42.136;24.742;2023-04-29T13:02:56;23.70;29.00
80230;DHT22;69540;42.136;24.742;2023-04-29T13:05:22;23.70;29.00
80230;DHT22;69540;42.136;24.742;2023-04-29T13:07:48;23.70;29.00
80230;DHT22;69540;42.136;24.742;2023-04-29T13:10:14;23.70;29.10
80230;DHT22;69540;42.136;24.742;2023-04-29T13:12:40;23.70;29.20
80230;DHT22;69540;42.136;24.742;2023-04-29T13:15:07;23.70;29.10
80230;DHT22;69540;42.136;24.742;2023-04-29T13:17:36;23.70;29.10
80230;DHT22;69540;42.136;24.742;2023-04-29T13:20:05;23.70;29.10
80230;DHT22;69540;42.136;24.742;2023-04-29T13:22:31;23.70;29.10
80230;DHT22;69540;42.136;24.742;2023-04-29T13:24:57;23.70;29.10
80230;DHT22;69540;42.136;24.742;2023-04-29T13:27:23;23.80;29.10
80230;DHT22;69540;42.136;24.742;2023-04-29T13:29:48;23.80;29.00
80230;DHT22;69540;42.136;24.742;2023-04-29T13:32:14;23.80;28.90
80230;DHT22;69540;42.136;24.742;2023-04-29T13:38:24;23.80;29.00
80230;DHT22;69540;42.136;24.742;2023-04-29T13:40:50;23.80;29.00
80230;DHT22;69540;42.136;24.742;2023-04-29T13:43:16;23.80;29.00
80230;DHT22;69540;42.136;24.742;2023-04-29T13:45:41;23.80;28.90
80230;DHT22;69540;42.136;24.742;2023-04-29T13:48:07;23.80;29.00
80230;DHT22;69540;42.136;24.742;2023-04-29T13:50:33;23.80;29.00
80230;DHT22;69540;42.136;24.742;2023-04-29T13:52:58;23.70;29.80
80230;DHT22;69540;42.136;24.742;2023-04-29T13:55:24;23.80;29.00
80230;DHT22;69540;42.136;24.742;2023-04-29T13:57:50;23.80;29.00
80230;DHT22;69540;42.136;24.742;2023-04-29T14:00:17;23.80;28.90
80230;DHT22;69540;42.136;24.742;2023-04-29T14:02:43;23.80;29.00
80230;DHT22;69540;42.136;24.742;2023-04-29T14:05:09;23.80;29.00
80230;DHT22;69540;42.136;24.742;2023-04-29T14:07:34;23.80;29.10
80230;DHT22;69540;42.136;24.742;2023-04-29T14:10:00;23.80;29.20
80230;DHT22;69540;42.136;24.742;2023-04-29T14:12:26;23.80;29.10
80230;DHT22;69540;42.136;24.742;2023-04-29T14:14:52;23.80;29.20
80230;DHT22;69540;42.136;24.742;2023-04-29T14:17:18;23.80;29.20
80230;DHT22;69540;42.136;24.742;2023-04-29T14:19:43;23.80;29.20
80230;DHT22;69540;42.136;24.742;2023-04-29T14:22:09;23.80;29.20
80230;DHT22;69540;42.136;24.742;2023-04-29T14:24:35;23.80;29.20
80230;DHT22;69540;42.136;24.742;2023-04-29T14:27:00;23.80;29.30
80230;DHT22;69540;42.136;24.742;2023-04-29T14:29:26;23.80;29.30
80230;DHT22;69540;42.136;24.742;2023-04-29T14:31:52;23.80;29.30
80230;DHT22;69540;42.136;24.742;2023-04-29T14:34:18;23.80;29.30
80230;DHT22;69540;42.136;24.742;2023-04-29T14:36:44;23.80;29.40
80230;DHT22;69540;42.136;24.742;2023-04-29T14:39:11;23.80;29.40
80230;DHT22;69540;42.136;24.742;2023-04-29T14:41:37;23.80;29.40
80230;DHT22;69540;42.136;24.742;2023-04-29T14:44:03;23.80;29.30
80230;DHT22;69540;42.136;24.742;2023-04-29T14:46:30;23.80;29.30
80230;DHT22;69540;42.136;24.742;2023-04-29T14:48:56;23.80;29.30
80230;DHT22;69540;42.136;24.742;2023-04-29T14:51:22;23.90;29.40
80230;DHT22;69540;42.136;24.742;2023-04-29T14:53:47;23.80;29.40
80230;DHT22;69540;42.136;24.742;2023-04-29T14:56:15;23.80;29.40
80230;DHT22;69540;42.136;24.742;2023-04-29T14:58:41;23.90;29.50
80230;DHT22;69540;42.136;24.742;2023-04-29T15:07:51;23.80;29.40
80230;DHT22;69540;42.136;24.742;2023-04-29T15:10:17;23.80;29.50
80230;DHT22;69540;42.136;24.742;2023-04-29T15:12:42;23.80;29.50
80230;DHT22;69540;42.136;24.742;2023-04-29T15:15:08;23.80;29.50
80230;DHT22;69540;42.136;24.742;2023-04-29T15:17:34;23.80;29.50
80230;DHT22;69540;42.136;24.742;2023-04-29T15:20:00;23.80;29.50
80230;DHT22;69540;42.136;24.742;2023-04-29T15:22:26;23.80;29.50
80230;DHT22;69540;42.136;24.742;2023-04-29T15:24:51;23.80;29.50
80230;DHT22;69540;42.136;24.742;2023-04-29T15:27:17;23.80;29.50
80230;DHT22;69540;42.136;24.742;2023-04-29T15:29:42;23.80;29.60
80230;DHT22;69540;42.136;24.742;2023-04-29T15:32:08;23.80;29.60
80230;DHT22;69540;42.136;24.742;2023-04-29T15:34:34;23.80;29.60
80230;DHT22;69540;42.136;24.742;2023-04-29T15:37:00;23.80;29.60
80230;DHT22;69540;42.136;24.742;2023-04-29T15:39:26;23.80;29.60
80230;DHT22;69540;42.136;24.742;2023-04-29T15:41:52;23.80;29.60
80230;DHT22;69540;42.136;24.742;2023-04-29T15:44:18;23.80;29.60
80230;DHT22;69540;42.136;24.742;2023-04-29T16:00:21;23.80;29.70
80230;DHT22;69540;42.136;24.742;2023-04-29T16:02:47;23.80;29.70
80230;DHT22;69540;42.136;24.742;2023-04-29T16:05:12;23.80;29.70
80230;DHT22;69540;42.136;24.742;2023-04-29T16:07:38;23.80;29.70
80230;DHT22;69540;42.136;24.742;2023-04-29T16:10:04;23.90;29.60
80230;DHT22;69540;42.136;24.742;2023-04-29T16:13:01;23.80;29.80
80230;DHT22;69540;42.136;24.742;2023-04-29T16:16:21;23.90;29.80
80230;DHT22;69540;42.136;24.742;2023-04-29T16:19:06;24.10;29.60
80230;DHT22;69540;42.136;24.742;2023-04-29T16:21:32;24.00;29.60
80230;DHT22;69540;42.136;24.742;2023-04-29T16:23:58;24.00;29.60
80230;DHT22;69540;42.136;24.742;2023-04-29T16:26:24;23.90;29.60
80230;DHT22;69540;42.136;24.742;2023-04-29T16:28:50;24.00;29.60
80230;DHT22;69540;42.136;24.742;2023-04-29T16:31:16;24.00;29.50
80230;DHT22;69540;42.136;24.742;2023-04-29T16:33:43;24.00;29.50